Marshalls Creek, Pennsylvania
Current Conditions -  °F | °C
As of 2:59 PM on Monday 26 Jan 2015 (Local Time) from KMPO Reporting Station
Moderate Snow Moderate Snow  
Wind Chill:   Ceiling: 1000
Heat Index: 18°   Visibility: 0.5mi
Dew Point: 13°   Wind: 14mph
Humidity: 81%   Direction: 70°ENE
Pressure: 29.71"   Gusts: NA
Location:  41.04°N, 75.13°W
Report Text: KMPO 261959Z AUTO 07012KT 1/2SM SN VV010 M08/M11 A2971 RMK AO2 P0000 T10781106
Loading
Personal Weather Stations






























Interactive Weather Map New forecast layout! Learn more

10-Day Weather Forecast

Advertisements
Track Severe Weather on mobile